Hamlet, North Dakota
Current Conditions -  °F | °C
As of 6:35 PM on Monday 22 Dec 2014 (Local Time) from KD60 Reporting Station
Haze Haze  
Wind Chill: 16°   Ceiling: 1500
Heat Index: 27°   Visibility: 5mi
Dew Point: 27°   Wind: 13mph
Humidity: 100%   Direction: 350°N
Pressure: 29.78"   Gusts: NA
Location:  48.5899°N, 103.211°W
Report Text: KD60 230035Z AUTO 35011KT 5SM BR SCT005 OVC015 M03/M03 A2978 RMK AO2
Loading
Personal Weather Stations






























Interactive Weather Map New forecast layout! Learn more

10-Day Weather Forecast

Advertisements
Track Severe Weather on mobile